createdAt,value
2023-02-05T00:00:56.789Z,50.867168
2023-02-05T00:01:56.792Z,50.867447
2023-02-05T00:02:56.775Z,50.867161
2023-02-05T00:03:56.768Z,50.866863
2023-02-05T00:04:56.749Z,50.866783
2023-02-05T00:05:56.753Z,50.866684
2023-02-05T00:06:56.730Z,50.866581
2023-02-05T00:07:56.736Z,50.866932
2023-02-05T00:08:56.726Z,50.866764
2023-02-05T00:09:57.726Z,50.866825
2023-02-05T00:10:56.705Z,50.866875
2023-02-05T00:11:56.775Z,50.866951
2023-02-05T00:12:56.709Z,50.866879
2023-02-05T00:13:56.686Z,50.866940
2023-02-05T00:14:56.673Z,50.866886
2023-02-05T00:15:56.682Z,50.866936
2023-02-05T00:16:56.797Z,50.866787
2023-02-05T00:17:56.654Z,50.866695
2023-02-05T00:18:56.646Z,50.866806
2023-02-05T00:19:57.201Z,50.866997
2023-02-05T00:20:56.655Z,50.866852
2023-02-05T00:21:56.623Z,50.866749
2023-02-05T00:22:56.611Z,50.866886
2023-02-05T00:23:56.611Z,50.866875
2023-02-05T01:04:46.942Z,50.866432
2023-02-05T01:05:46.931Z,50.866505
2023-02-05T01:06:46.926Z,50.866314
2023-02-05T01:07:46.925Z,50.866333
2023-02-05T01:08:46.920Z,50.866364
2023-02-05T01:09:46.910Z,50.866692
2023-02-05T01:10:47.468Z,50.866562
2023-02-05T01:11:46.883Z,50.866444
2023-02-05T01:12:46.872Z,50.866531
2023-02-05T01:13:46.868Z,50.866505
2023-02-05T01:14:46.864Z,50.866226
2023-02-05T01:15:46.916Z,50.866341
2023-02-05T01:16:46.853Z,50.866432
2023-02-05T01:17:46.851Z,50.866035
2023-02-05T01:18:48.472Z,50.866024
2023-02-05T01:19:46.828Z,50.865940
2023-02-05T01:20:46.852Z,50.865967
2023-02-05T01:21:48.557Z,50.865841
2023-02-05T01:22:46.804Z,50.865803
2023-02-05T01:23:46.795Z,50.865993
2023-02-05T01:24:46.807Z,50.865883
2023-02-05T01:25:46.804Z,50.866150
2023-02-05T01:26:46.779Z,50.866344
2023-02-05T01:27:46.795Z,50.865993
2023-02-05T01:28:47.462Z,50.866295
2023-02-05T01:29:46.763Z,50.866333
2023-02-05T01:30:46.800Z,50.866241
2023-02-05T01:31:46.827Z,50.866180
2023-02-05T01:32:47.466Z,50.866150
2023-02-05T01:33:46.756Z,50.866276
2023-02-05T01:34:46.719Z,50.866283
2023-02-05T01:35:46.703Z,50.866169
2023-02-05T01:36:46.694Z,50.866264
2023-02-05T01:37:47.707Z,50.866245
2023-02-05T01:38:46.687Z,50.866169
2023-02-05T01:39:46.672Z,50.866005
2023-02-05T01:40:46.691Z,50.866161
2023-02-05T01:41:46.665Z,50.866158
2023-02-05T01:42:46.644Z,50.866245
2023-02-05T01:43:46.654Z,50.866138
2023-02-05T01:44:46.624Z,50.866180
2023-02-05T01:45:46.615Z,50.866154
2023-02-05T01:46:46.638Z,50.866192
2023-02-05T01:47:46.600Z,50.865978
2023-02-05T01:48:46.597Z,50.865627
2023-02-05T01:49:46.596Z,50.865562
2023-02-05T01:50:46.574Z,50.865501
2023-02-05T01:51:46.575Z,50.866726
2023-02-05T01:52:46.581Z,50.866684
2023-02-05T01:53:46.565Z,50.866730
2023-02-05T01:54:46.550Z,50.866707
2023-02-05T01:55:46.533Z,50.866661
2023-02-05T01:56:46.528Z,50.866611
2023-02-05T01:57:46.540Z,50.866627
2023-02-05T01:58:46.522Z,50.866684
2023-02-05T01:59:46.522Z,50.866699
2023-02-05T02:00:46.502Z,50.866673
2023-02-05T02:01:46.532Z,50.866646
2023-02-05T02:02:46.484Z,50.866676
2023-02-05T02:03:48.052Z,50.866673
2023-02-05T02:04:46.512Z,50.866615
2023-02-05T02:05:46.464Z,50.866627
2023-02-05T02:06:46.452Z,50.866611
2023-02-05T02:07:46.441Z,50.866650
2023-02-05T02:08:46.449Z,50.866619
2023-02-05T02:09:46.425Z,50.866623
2023-02-05T02:10:47.043Z,50.866600
2023-02-05T02:11:46.421Z,50.866547
2023-02-05T02:12:46.414Z,50.866585
2023-02-05T02:13:46.396Z,50.866547
2023-02-05T02:14:46.437Z,50.866558
2023-02-05T02:15:46.406Z,50.866585
2023-02-05T02:16:48.963Z,50.866661
2023-02-05T02:17:47.065Z,50.866634
2023-02-05T02:18:46.391Z,50.866619
2023-02-05T02:19:46.355Z,50.866604
2023-02-05T02:20:46.342Z,50.866657
2023-02-05T02:21:47.040Z,50.866707
2023-02-05T02:22:46.343Z,50.866714
2023-02-05T02:23:46.333Z,50.866779
2023-02-05T02:24:46.311Z,50.866676
2023-02-05T02:25:46.313Z,50.866646
2023-02-05T02:26:46.296Z,50.866611
2023-02-05T02:27:46.382Z,50.866661
2023-02-05T02:28:46.297Z,50.866657
2023-02-05T02:29:46.275Z,50.866615
2023-02-05T02:30:46.272Z,50.866627
2023-02-05T02:31:48.037Z,50.866619
2023-02-05T02:32:47.049Z,50.866714
2023-02-05T02:33:46.255Z,50.866737
2023-02-05T02:34:46.240Z,50.866699
2023-02-05T02:35:46.222Z,50.866726
2023-02-05T02:36:46.214Z,50.866714
2023-02-05T02:37:46.206Z,50.866718
2023-02-05T02:38:46.989Z,50.866737
2023-02-05T02:39:46.208Z,50.866730
2023-02-05T02:40:46.190Z,50.866737
2023-02-05T02:41:46.182Z,50.866749
2023-02-05T02:42:46.177Z,50.866680
2023-02-05T02:43:46.156Z,50.866714
2023-02-05T02:44:46.194Z,50.866623
2023-02-05T02:45:46.155Z,50.866665
2023-02-05T02:46:46.187Z,50.866673
2023-02-05T02:47:46.136Z,50.866665
2023-02-05T02:48:46.128Z,50.866661
2023-02-05T02:49:46.117Z,50.866730
2023-02-05T02:50:46.121Z,50.866718
2023-02-05T02:51:46.101Z,50.866680
2023-02-05T02:52:46.102Z,50.866676
2023-02-05T02:53:46.091Z,50.866680
2023-02-05T02:54:46.093Z,50.866665
2023-02-05T02:55:46.117Z,50.866669
2023-02-05T02:56:46.064Z,50.866714
2023-02-05T02:57:46.068Z,50.866619
2023-02-05T02:58:46.064Z,50.866703
2023-02-05T02:59:47.547Z,50.866699
2023-02-05T03:00:46.119Z,50.866676
2023-02-05T03:01:53.330Z,50.866711
2023-02-05T03:02:48.024Z,50.866703
2023-02-05T03:03:47.986Z,50.866779
2023-02-05T03:04:46.009Z,50.866802
2023-02-05T03:05:46.003Z,50.866817
2023-02-05T03:06:45.989Z,50.866802
2023-02-05T03:07:46.005Z,50.866726
2023-02-05T03:08:45.997Z,50.866737
2023-02-05T03:09:45.965Z,50.866760
2023-02-05T03:10:46.488Z,50.866783
2023-02-05T03:11:46.556Z,50.866741
2023-02-05T03:12:45.951Z,50.866764
2023-02-05T03:13:45.946Z,50.866749
2023-02-05T03:14:45.930Z,50.866776
2023-02-05T03:15:45.927Z,50.866779
2023-02-05T03:16:45.921Z,50.866806
2023-02-05T03:17:45.923Z,50.866776
2023-02-05T03:18:47.499Z,50.866753
2023-02-05T03:19:46.480Z,50.866776
2023-02-05T03:20:45.887Z,50.866722
2023-02-05T03:21:45.882Z,50.866764
2023-02-05T03:22:47.551Z,50.866764
2023-02-05T03:23:45.868Z,50.866768
2023-02-05T03:24:45.864Z,50.866795
2023-02-05T03:25:45.849Z,50.866795
2023-02-05T03:26:45.839Z,50.866768
2023-02-05T03:27:45.858Z,50.866749
2023-02-05T03:28:45.865Z,50.866756
2023-02-05T03:29:45.814Z,50.866753
2023-02-05T03:30:45.851Z,50.866768
2023-02-05T03:31:45.808Z,50.866764
2023-02-05T03:32:45.783Z,50.866764
2023-02-05T03:33:45.786Z,50.866745
2023-02-05T03:34:45.778Z,50.866756
2023-02-05T03:35:45.758Z,50.866730
2023-02-05T03:36:45.759Z,50.866734
2023-02-05T03:37:47.481Z,50.866756
2023-02-05T03:38:45.746Z,50.866749
2023-02-05T03:39:45.726Z,50.866722
2023-02-05T03:40:45.728Z,50.866734
2023-02-05T03:41:45.725Z,50.866722
2023-02-05T03:42:45.707Z,50.866730
2023-02-05T03:43:46.691Z,50.866707
2023-02-05T03:44:45.701Z,50.866730
2023-02-05T03:45:47.578Z,50.866722
2023-02-05T03:46:45.684Z,50.866726
2023-02-05T03:47:45.667Z,50.866734
2023-02-05T03:48:47.555Z,50.866714
2023-02-05T03:49:45.660Z,50.866714
2023-02-05T03:50:45.643Z,50.866722
2023-02-05T03:51:45.669Z,50.866722
2023-02-05T03:52:45.627Z,50.866722
2023-02-05T03:53:45.617Z,50.866734
2023-02-05T03:54:45.609Z,50.866737
2023-02-05T03:55:47.564Z,50.866730
2023-02-05T03:56:45.595Z,50.866722
2023-02-05T03:57:45.579Z,50.866764
2023-02-05T03:58:45.587Z,50.866753
2023-02-05T03:59:45.560Z,50.866730
2023-02-05T04:00:45.684Z,50.866753
2023-02-05T04:01:46.546Z,50.866756
2023-02-05T04:02:45.541Z,50.866737
2023-02-05T04:03:45.529Z,50.866722
2023-02-05T04:04:45.544Z,50.866714
2023-02-05T04:05:45.570Z,50.866749
2023-02-05T04:06:45.513Z,50.866779
2023-02-05T04:07:45.496Z,50.866787
2023-02-05T04:08:46.069Z,50.866779
2023-02-05T04:09:46.479Z,50.866749
2023-02-05T04:10:45.467Z,50.866753
2023-02-05T04:11:45.460Z,50.866703
2023-02-05T04:12:45.477Z,50.866756
2023-02-05T04:13:45.458Z,50.866768
2023-02-05T04:14:45.445Z,50.866787
2023-02-05T04:15:45.430Z,50.866768
2023-02-05T04:16:45.461Z,50.866783
2023-02-05T04:17:45.415Z,50.866798
2023-02-05T04:18:45.402Z,50.866779
2023-02-05T04:19:45.404Z,50.866764
2023-02-05T04:20:45.399Z,50.866844
2023-02-05T04:21:45.388Z,50.866856
2023-02-05T04:22:45.385Z,50.866882
2023-02-05T04:23:45.385Z,50.866852
2023-02-05T04:24:45.357Z,50.866814
2023-02-05T04:25:45.353Z,50.866783
2023-02-05T04:26:45.347Z,50.866734
2023-02-05T04:27:45.352Z,50.866844
2023-02-05T04:28:47.053Z,50.866741
2023-02-05T04:29:45.321Z,50.866768
2023-02-05T04:30:45.357Z,50.866829
2023-02-05T04:31:47.092Z,50.866859
2023-02-05T04:32:45.308Z,50.866940
2023-02-05T04:33:45.300Z,50.866943
2023-02-05T04:34:45.295Z,50.866890
2023-02-05T04:35:45.285Z,50.866928
2023-02-05T04:36:45.292Z,50.867031
2023-02-05T04:37:45.272Z,50.867085
2023-02-05T04:38:45.268Z,50.867184
2023-02-05T04:39:45.256Z,50.867130
2023-02-05T04:40:45.242Z,50.867146
2023-02-05T04:41:45.239Z,50.867168
2023-02-05T04:42:45.238Z,50.867153
2023-02-05T04:43:45.225Z,50.867161
2023-02-05T04:44:45.211Z,50.867199
2023-02-05T04:45:45.313Z,50.867039
2023-02-05T04:46:45.199Z,50.866905
2023-02-05T04:47:45.186Z,50.866814
2023-02-05T04:48:45.220Z,50.866829
2023-02-05T04:49:45.174Z,50.866917
2023-02-05T04:50:45.178Z,50.866871
2023-02-05T04:51:45.165Z,50.866898
2023-02-05T04:52:45.150Z,50.866924
2023-02-05T04:53:45.265Z,50.867027
2023-02-05T04:54:45.140Z,50.866970
2023-02-05T04:55:45.131Z,50.866905
2023-02-05T04:56:45.124Z,50.866936
2023-02-05T04:57:45.120Z,50.866879
2023-02-05T04:58:45.119Z,50.866875
2023-02-05T04:59:45.106Z,50.866909
2023-02-05T05:00:45.097Z,50.866890
2023-02-05T05:01:45.095Z,50.866932
2023-02-05T05:02:46.203Z,50.866856
2023-02-05T05:03:45.064Z,50.866817
2023-02-05T05:04:45.060Z,50.866795
2023-02-05T05:05:45.053Z,50.866825
2023-02-05T05:06:45.083Z,50.866840
2023-02-05T05:07:45.036Z,50.866905
2023-02-05T05:08:45.044Z,50.866882
2023-02-05T05:09:46.568Z,50.866848
2023-02-05T05:10:45.006Z,50.866772
2023-02-05T05:11:45.014Z,50.866779
2023-02-05T05:12:44.989Z,50.866783
2023-02-05T05:13:45.980Z,50.866825
2023-02-05T05:14:44.982Z,50.866802
2023-02-05T05:15:45.014Z,50.866753
2023-02-05T05:16:44.973Z,50.866734
2023-02-05T05:17:44.960Z,50.866806
2023-02-05T05:18:44.948Z,50.866802
2023-02-05T05:19:44.935Z,50.866829
2023-02-05T05:20:45.499Z,50.866802
2023-02-05T05:21:44.921Z,50.866764
2023-02-05T05:22:44.942Z,50.866772
2023-02-05T05:23:44.913Z,50.866753
2023-02-05T05:24:44.894Z,50.866776
2023-02-05T05:25:46.573Z,50.866810
2023-02-05T05:26:44.885Z,50.866829
2023-02-05T05:27:44.897Z,50.866768
2023-02-05T05:28:44.874Z,50.866787
2023-02-05T05:29:44.883Z,50.866802
2023-02-05T05:30:46.541Z,50.866734
2023-02-05T05:31:46.535Z,50.866734
2023-02-05T05:32:44.824Z,50.866787
2023-02-05T05:33:45.854Z,50.866737
2023-02-05T05:34:44.842Z,50.866741
2023-02-05T05:35:46.566Z,50.866787
2023-02-05T05:36:44.809Z,50.866802
2023-02-05T05:37:44.816Z,50.866791
2023-02-05T05:38:44.793Z,50.866806
2023-02-05T05:39:45.575Z,50.866814
2023-02-05T05:40:44.774Z,50.866791
2023-02-05T05:41:44.779Z,50.866772
2023-02-05T05:42:44.756Z,50.866753
2023-02-05T05:43:44.758Z,50.866814
2023-02-05T05:44:44.747Z,50.866810
2023-02-05T05:45:44.767Z,50.866779
2023-02-05T05:46:44.731Z,50.866768
2023-02-05T05:47:44.729Z,50.866749
2023-02-05T05:48:44.733Z,50.866749
2023-02-05T05:49:44.725Z,50.866772
2023-02-05T05:50:46.498Z,50.866802
2023-02-05T05:51:44.690Z,50.866756
2023-02-05T05:52:44.680Z,50.866795
2023-02-05T05:53:44.678Z,50.866810
2023-02-05T05:54:44.677Z,50.866810
2023-02-05T05:55:44.660Z,50.866787
2023-02-05T05:56:44.650Z,50.866825
2023-02-05T05:57:44.647Z,50.866791
2023-02-05T05:58:44.631Z,50.866764
2023-02-05T05:59:44.626Z,50.866749
2023-02-05T06:00:44.617Z,50.866737
2023-02-05T06:01:44.613Z,50.866745
2023-02-05T06:02:44.691Z,50.866779
2023-02-05T06:03:44.585Z,50.866768
2023-02-05T06:04:44.603Z,50.866776
2023-02-05T06:05:44.573Z,50.866756
2023-02-05T06:06:44.569Z,50.866726
2023-02-05T06:07:44.555Z,50.866745
2023-02-05T06:08:44.555Z,50.866768
2023-02-05T06:09:44.540Z,50.866772
2023-02-05T06:10:45.501Z,50.866756
2023-02-05T06:11:44.525Z,50.866737
2023-02-05T06:12:44.516Z,50.866714
2023-02-05T06:13:44.516Z,50.866695
2023-02-05T06:14:44.508Z,50.866814
2023-02-05T06:15:44.534Z,50.866737
2023-02-05T06:16:44.478Z,50.866722
2023-02-05T06:17:44.480Z,50.866756
2023-02-05T06:18:45.476Z,50.866741
2023-02-05T06:19:46.076Z,50.866760
2023-02-05T06:20:46.072Z,50.866802
2023-02-05T06:21:44.442Z,50.866833
2023-02-05T06:22:44.431Z,50.866879
2023-02-05T06:23:44.435Z,50.866852
2023-02-05T06:24:44.418Z,50.866833
2023-02-05T06:25:44.419Z,50.866852
2023-02-05T06:26:45.984Z,50.866856
2023-02-05T06:27:44.424Z,50.866844
2023-02-05T06:28:44.396Z,50.866928
2023-02-05T06:29:45.210Z,50.866756
2023-02-05T06:30:44.400Z,50.866779
2023-02-05T06:31:44.566Z,50.866714
2023-02-05T06:32:44.354Z,50.866802
2023-02-05T06:33:44.352Z,50.867081
2023-02-05T06:34:44.345Z,50.867004
2023-02-05T06:35:44.348Z,50.866886
2023-02-05T06:36:44.337Z,50.866802
2023-02-05T06:37:47.885Z,50.866688
2023-02-05T06:38:45.319Z,50.866863
2023-02-05T06:39:44.301Z,50.867023
2023-02-05T06:40:44.301Z,50.866837
2023-02-05T06:41:44.293Z,50.866772
2023-02-05T06:42:44.280Z,50.866722
2023-02-05T06:43:44.283Z,50.866753
2023-02-05T06:44:44.271Z,50.866764
2023-02-05T06:45:44.273Z,50.866703
2023-02-05T06:46:44.281Z,50.866703
2023-02-05T06:47:44.252Z,50.866734
2023-02-05T06:48:44.233Z,50.866779
2023-02-05T06:49:44.234Z,50.866783
2023-02-05T06:50:44.226Z,50.866753
2023-02-05T06:51:44.210Z,50.866726
2023-02-05T06:52:45.995Z,50.866737
2023-02-05T06:53:46.101Z,50.866768
2023-02-05T06:54:45.190Z,50.866848
2023-02-05T06:55:44.190Z,50.866798
2023-02-05T06:56:44.169Z,50.866814
2023-02-05T06:57:44.165Z,50.866783
2023-02-05T06:58:45.147Z,50.866776
2023-02-05T06:59:44.142Z,50.866730
2023-02-05T07:00:44.136Z,50.866745
2023-02-05T07:01:44.181Z,50.866768
2023-02-05T07:02:44.158Z,50.866760
2023-02-05T07:03:44.121Z,50.866684
2023-02-05T07:04:44.107Z,50.866753
2023-02-05T07:05:44.106Z,50.866779
2023-02-05T07:06:44.097Z,50.866726
2023-02-05T07:07:44.100Z,50.866699
2023-02-05T07:08:44.077Z,50.866688
2023-02-05T07:09:44.068Z,50.866791
2023-02-05T07:10:44.060Z,50.866844
2023-02-05T07:11:44.064Z,50.866829
2023-02-05T07:12:44.049Z,50.866894
2023-02-05T07:13:45.002Z,50.866886
2023-02-05T07:14:44.028Z,50.866768
2023-02-05T07:15:45.651Z,50.866753
2023-02-05T07:16:44.023Z,50.866840
2023-02-05T07:17:44.589Z,50.866852
2023-02-05T07:18:45.580Z,50.867054
2023-02-05T07:19:44.003Z,50.867119
2023-02-05T07:20:43.986Z,50.867073
2023-02-05T07:21:43.980Z,50.867004
2023-02-05T07:22:43.969Z,50.866852
2023-02-05T07:23:43.967Z,50.866787
2023-02-05T07:24:44.620Z,50.866802
2023-02-05T07:25:43.964Z,50.866787
2023-02-05T07:26:44.517Z,50.866772
2023-02-05T07:27:43.950Z,50.866726
2023-02-05T07:28:43.934Z,50.866791
2023-02-05T07:29:47.512Z,50.866871
2023-02-05T07:30:43.956Z,50.866856
2023-02-05T07:31:45.701Z,50.866802
2023-02-05T07:32:43.900Z,50.866814
2023-02-05T07:33:43.912Z,50.866722
2023-02-05T07:34:45.510Z,50.866776
2023-02-05T07:35:43.864Z,50.866787
2023-02-05T07:36:43.854Z,50.866798
2023-02-05T07:37:43.854Z,50.866753
2023-02-05T07:38:43.853Z,50.866779
2023-02-05T07:39:43.840Z,50.866764
2023-02-05T07:40:43.826Z,50.866772
2023-02-05T07:41:43.843Z,50.866665
2023-02-05T07:42:43.809Z,50.866535
2023-02-05T07:43:43.796Z,50.866669
2023-02-05T07:44:43.801Z,50.866756
2023-02-05T07:45:43.797Z,50.866726
2023-02-05T07:46:43.846Z,50.866783
2023-02-05T07:47:43.769Z,50.866638
2023-02-05T07:48:43.763Z,50.866688
2023-02-05T07:49:43.756Z,50.866795
2023-02-05T07:50:43.760Z,50.866718
2023-02-05T07:51:43.740Z,50.866650
2023-02-05T07:52:43.742Z,50.866749
2023-02-05T07:53:43.722Z,50.866657
2023-02-05T07:54:43.720Z,50.866692
2023-02-05T07:55:43.700Z,50.866703
2023-02-05T07:56:43.700Z,50.866760
2023-02-05T07:57:43.675Z,50.866806
2023-02-05T07:58:44.686Z,50.866737
2023-02-05T07:59:43.670Z,50.866703
2023-02-05T08:00:43.713Z,50.866737
2023-02-05T08:01:43.671Z,50.866646
2023-02-05T08:02:43.643Z,50.866680
2023-02-05T08:03:45.528Z,50.866711
2023-02-05T08:04:43.681Z,50.866726
2023-02-05T08:05:43.637Z,50.866745
2023-02-05T08:06:43.624Z,50.866718
2023-02-05T08:07:44.506Z,50.866707
2023-02-05T08:08:44.528Z,50.866634
2023-02-05T08:09:43.607Z,50.866611
2023-02-05T08:10:43.587Z,50.866604
2023-02-05T08:11:43.580Z,50.866673
2023-02-05T08:12:45.505Z,50.866642
2023-02-05T08:13:43.564Z,50.866577
2023-02-05T08:14:43.562Z,50.866550
2023-02-05T08:15:43.554Z,50.866581
2023-02-05T08:16:44.506Z,50.866573
2023-02-05T08:17:43.531Z,50.866581
2023-02-05T08:18:43.529Z,50.866577
2023-02-05T08:19:43.523Z,50.866688
2023-02-05T08:20:43.512Z,50.866783
2023-02-05T08:21:43.521Z,50.866772
2023-02-05T08:22:43.517Z,50.866791
2023-02-05T08:23:44.012Z,50.866867
2023-02-05T08:24:45.081Z,50.866791
2023-02-05T08:25:43.478Z,50.866844
2023-02-05T08:26:43.460Z,50.866726
2023-02-05T08:27:43.506Z,50.866722
2023-02-05T08:28:43.483Z,50.866837
2023-02-05T08:29:45.097Z,50.866787
2023-02-05T08:30:44.062Z,50.866741
2023-02-05T08:31:43.477Z,50.866741
2023-02-05T08:32:43.432Z,50.866776
2023-02-05T08:33:43.421Z,50.866760
2023-02-05T08:34:43.405Z,50.866787
2023-02-05T08:35:43.405Z,50.866768
2023-02-05T08:36:45.023Z,50.866772
2023-02-05T08:37:45.092Z,50.866810
2023-02-05T08:38:43.375Z,50.866688
2023-02-05T08:39:43.367Z,50.866795
2023-02-05T08:40:43.365Z,50.866787
2023-02-05T08:41:43.362Z,50.866753
2023-02-05T08:42:43.345Z,50.866699
2023-02-05T08:43:43.328Z,50.866695
2023-02-05T08:44:43.336Z,50.866749
2023-02-05T08:45:43.348Z,50.866768
2023-02-05T08:46:49.817Z,50.866745
2023-02-05T08:47:45.302Z,50.866669
2023-02-05T08:48:43.295Z,50.866646
2023-02-05T08:49:44.092Z,50.866695
2023-02-05T08:50:43.277Z,50.866699
2023-02-05T08:51:44.015Z,50.866726
2023-02-05T08:52:43.270Z,50.866768
2023-02-05T08:53:43.302Z,50.866837
2023-02-05T08:54:43.247Z,50.866829
2023-02-05T08:55:43.242Z,50.866772
2023-02-05T08:56:43.234Z,50.866772
2023-02-05T08:57:44.215Z,50.866802
2023-02-05T08:58:43.259Z,50.866806
2023-02-05T08:59:43.201Z,50.866798
2023-02-05T09:00:43.192Z,50.866776
2023-02-05T09:01:43.286Z,50.866829
2023-02-05T09:02:43.197Z,50.866863
2023-02-05T09:03:43.168Z,50.866856
2023-02-05T09:04:43.245Z,50.866867
2023-02-05T09:05:43.162Z,50.866852
2023-02-05T09:06:43.145Z,50.866840
2023-02-05T09:07:44.094Z,50.866791
2023-02-05T09:08:43.144Z,50.866817
2023-02-05T09:09:49.119Z,50.866787
2023-02-05T09:10:45.037Z,50.866673
2023-02-05T09:11:43.120Z,50.866714
2023-02-05T09:12:43.104Z,50.866745
2023-02-05T09:13:43.597Z,50.866734
2023-02-05T09:14:44.606Z,50.866726
2023-02-05T09:15:43.073Z,50.866772
2023-02-05T09:16:43.620Z,50.866779
2023-02-05T09:17:43.060Z,50.866730
2023-02-05T09:18:43.075Z,50.866764
2023-02-05T09:19:43.048Z,50.866764
2023-02-05T09:20:43.052Z,50.866749
2023-02-05T09:21:43.031Z,50.866764
2023-02-05T09:22:43.029Z,50.866783
2023-02-05T09:23:43.013Z,50.866821
2023-02-05T09:24:44.517Z,50.866756
2023-02-05T09:25:43.003Z,50.866772
2023-02-05T09:26:43.007Z,50.866772
2023-02-05T09:27:43.030Z,50.866756
2023-02-05T09:28:42.970Z,50.866730
2023-02-05T09:29:42.966Z,50.866772
2023-02-05T09:30:43.079Z,50.866783
2023-02-05T09:31:43.020Z,50.866741
2023-02-05T09:32:42.993Z,50.866726
2023-02-05T09:33:45.417Z,50.866802
2023-02-05T09:34:43.523Z,50.866764
2023-02-05T09:35:43.926Z,50.866791
2023-02-05T09:36:42.924Z,50.866772
2023-02-05T09:37:42.907Z,50.866768
2023-02-05T09:38:42.906Z,50.866760
2023-02-05T09:40:19.022Z,50.866776
2023-02-05T09:40:44.875Z,50.866764
2023-02-05T09:41:42.924Z,50.866772
2023-02-05T09:42:42.930Z,50.866863
2023-02-05T09:43:42.856Z,50.866791
2023-02-05T09:44:42.850Z,50.866756
2023-02-05T09:45:42.837Z,50.866798
2023-02-05T09:46:42.836Z,50.866772
2023-02-05T09:47:42.868Z,50.866753
2023-02-05T09:48:44.600Z,50.866810
2023-02-05T09:49:42.807Z,50.866798
2023-02-05T09:50:42.865Z,50.866806
2023-02-05T09:51:43.526Z,50.866791
2023-02-05T09:52:42.782Z,50.866760
2023-02-05T09:53:42.793Z,50.866764
2023-02-05T09:54:42.762Z,50.866741
2023-02-05T09:55:42.768Z,50.866749
2023-02-05T09:56:42.745Z,50.866734
2023-02-05T09:57:42.744Z,50.866768
2023-02-05T09:58:42.735Z,50.866741
2023-02-05T09:59:42.722Z,50.866764
2023-02-05T10:00:42.763Z,50.866791
2023-02-05T10:01:42.742Z,50.866783
2023-02-05T10:02:42.691Z,50.866791
2023-02-05T10:03:42.733Z,50.866810
2023-02-05T10:04:42.736Z,50.866802
2023-02-05T10:05:42.684Z,50.866791
2023-02-05T10:06:42.677Z,50.866795
2023-02-05T10:07:43.659Z,50.866791
2023-02-05T10:08:42.648Z,50.866776
2023-02-05T10:09:42.648Z,50.866760
2023-02-05T10:10:42.646Z,50.866772
2023-02-05T10:11:42.631Z,50.866772
2023-02-05T10:12:42.635Z,50.866783
2023-02-05T10:13:42.610Z,50.866753
2023-02-05T10:14:42.619Z,50.866756
2023-02-05T10:15:42.617Z,50.866760
2023-02-05T10:16:42.599Z,50.866764
2023-02-05T10:17:42.581Z,50.866783
2023-02-05T10:18:42.580Z,50.866787
2023-02-05T10:19:42.566Z,50.866787
2023-02-05T10:20:42.549Z,50.866798
2023-02-05T10:21:42.552Z,50.866825
2023-02-05T10:22:42.537Z,50.866795
2023-02-05T10:23:42.534Z,50.866772
2023-02-05T10:24:42.522Z,50.866817
2023-02-05T10:25:45.228Z,50.866829
2023-02-05T10:26:42.514Z,50.866787
2023-02-05T10:27:42.524Z,50.866806
2023-02-05T10:28:44.114Z,50.866772
2023-02-05T10:29:42.483Z,50.866749
2023-02-05T10:30:42.588Z,50.866833
2023-02-05T10:31:42.551Z,50.866806
2023-02-05T10:32:42.477Z,50.866772
2023-02-05T10:33:42.462Z,50.866791
2023-02-05T10:34:42.443Z,50.866798
2023-02-05T10:35:42.443Z,50.866791
2023-02-05T10:36:42.432Z,50.866810
2023-02-05T10:37:42.429Z,50.866798
2023-02-05T10:38:42.414Z,50.866817
2023-02-05T10:39:42.403Z,50.866829
2023-02-05T10:40:43.104Z,50.866837
2023-02-05T10:41:42.385Z,50.866829
2023-02-05T10:42:42.384Z,50.866783
2023-02-05T10:43:42.381Z,50.866772
2023-02-05T10:44:42.367Z,50.866776
2023-02-05T10:45:42.354Z,50.866779
2023-02-05T10:46:42.396Z,50.866806
2023-02-05T10:47:42.339Z,50.866810
2023-02-05T10:48:42.418Z,50.866825
2023-02-05T10:49:42.328Z,50.866901
2023-02-05T10:50:42.322Z,50.866894
2023-02-05T10:51:43.118Z,50.866856
2023-02-05T10:52:44.144Z,50.866776
2023-02-05T10:53:42.311Z,50.866760
2023-02-05T10:54:42.300Z,50.866901
2023-02-05T10:55:42.275Z,50.866840
2023-02-05T10:56:42.277Z,50.866802
2023-02-05T10:57:42.261Z,50.866692
2023-02-05T10:58:44.200Z,50.866734
2023-02-05T10:59:43.114Z,50.866898
2023-02-05T11:00:42.261Z,50.866821
2023-02-05T11:01:44.237Z,50.866852
2023-02-05T11:02:42.323Z,50.866863
2023-02-05T11:03:42.225Z,50.866859
2023-02-05T11:04:42.218Z,50.866840
2023-02-05T11:05:42.202Z,50.866505
2023-02-05T11:06:46.108Z,50.866360
2023-02-05T11:07:42.191Z,50.866516
2023-02-05T11:08:42.172Z,50.866604
2023-02-05T11:09:42.182Z,50.866589
2023-02-05T11:10:44.030Z,50.866478
2023-02-05T11:11:42.216Z,50.866554
2023-02-05T11:12:42.154Z,50.866337
2023-02-05T11:13:42.150Z,50.866589
2023-02-05T11:14:42.128Z,50.866337
2023-02-05T11:15:42.128Z,50.866390
2023-02-05T11:16:42.148Z,50.866409
2023-02-05T11:17:42.107Z,50.866859
2023-02-05T11:18:42.144Z,50.866837
2023-02-05T11:19:42.085Z,50.866699
2023-02-05T11:20:42.639Z,50.866718
2023-02-05T11:21:43.040Z,50.866676
2023-02-05T11:22:42.061Z,50.866608
2023-02-05T11:23:42.052Z,50.866543
2023-02-05T11:24:42.045Z,50.866592
2023-02-05T11:25:42.054Z,50.866547
2023-02-05T11:26:43.040Z,50.866390
2023-02-05T11:27:45.559Z,50.866707
2023-02-05T11:28:42.108Z,50.866798
2023-02-05T11:29:42.030Z,50.867012
2023-02-05T11:30:50.755Z,50.866837
2023-02-05T11:31:44.106Z,50.866875
2023-02-05T11:32:41.991Z,50.866741
2023-02-05T11:33:41.978Z,50.866722
2023-02-05T11:34:42.050Z,50.866753
2023-02-05T11:35:42.538Z,50.866650
2023-02-05T11:36:41.966Z,50.866837
2023-02-05T11:37:41.956Z,50.866848
2023-02-05T11:38:41.954Z,50.866795
2023-02-05T11:39:42.543Z,50.866741
2023-02-05T11:40:41.923Z,50.866714
2023-02-05T11:41:42.537Z,50.866768
2023-02-05T11:42:41.929Z,50.866806
2023-02-05T11:43:41.900Z,50.866806
2023-02-05T11:44:41.894Z,50.866783
2023-02-05T11:45:41.886Z,50.866814
2023-02-05T11:46:41.915Z,50.866798
2023-02-05T11:47:41.866Z,50.866817
2023-02-05T11:48:42.005Z,50.866798
2023-02-05T11:49:41.857Z,50.866806
2023-02-05T11:50:41.856Z,50.866810
2023-02-05T11:51:41.934Z,50.866802
2023-02-05T11:52:41.837Z,50.866787
2023-02-05T11:53:41.821Z,50.866791
2023-02-05T11:54:41.812Z,50.866825
2023-02-05T11:55:41.812Z,50.866806
2023-02-05T11:56:41.810Z,50.866783
2023-02-05T11:57:41.883Z,50.866791
2023-02-05T11:58:41.829Z,50.866802
2023-02-05T11:59:41.778Z,50.866821
2023-02-05T12:00:41.774Z,50.866844
2023-02-05T12:01:41.818Z,50.866829
2023-02-05T12:02:41.775Z,50.866833
2023-02-05T12:03:41.750Z,50.866821
2023-02-05T12:04:41.742Z,50.866825